Time;durP1;ratioP1;P1;durP2;ratioP2;P2;SDS_P1;SDS_P2;PMS_P1;PMS_P2;Temp;Humidity;BMP_temperature;BMP_pressure;BME280_temperature;BME280_humidity;BME280_pressure;Samples;Min_cycle;Max_cycle;Signal;HPM_P1;HPM_P2
2023/04/15 00:01:51;;;;;;;;;25.00;24.00;;;;;6.69;100.00;98557.09;6307550;20;2832708;-51
2023/04/15 00:04:24;;;;;;;;;0.00;0.00;;;;;6.69;100.00;98556.22;6314499;20;2706597;-53
2023/04/15 00:06:53;;;;;;;;;21.50;21.50;;;;;6.67;100.00;98553.66;6280064;20;2828392;-54
2023/04/15 00:09:21;;;;;;;;;21.00;20.00;;;;;6.76;100.00;98558.41;6272988;20;2496095;-55
2023/04/15 00:11:50;;;;;;;;;17.33;15.67;;;;;6.54;100.00;98553.59;6279906;20;3546120;-53
2023/04/15 00:14:18;;;;;;;;;29.50;23.00;;;;;6.67;100.00;98553.66;6273710;20;2500292;-54
2023/04/15 00:16:46;;;;;;;;;19.50;18.00;;;;;6.62;100.00;98550.44;6275307;20;2500292;-52
2023/04/15 00:19:14;;;;;;;;;21.00;19.00;;;;;6.72;100.00;98551.56;6276121;20;2500473;-52
2023/04/15 00:21:43;;;;;;;;;19.67;17.00;;;;;6.82;100.00;98541.16;6273177;20;3552465;-53
2023/04/15 00:24:12;;;;;;;;;23.33;19.67;;;;;6.82;100.00;98547.34;6277696;20;3576318;-57
2023/04/15 00:26:41;;;;;;;;;15.33;13.00;;;;;6.78;100.00;98545.81;6275349;20;3539989;-54
2023/04/15 00:29:10;;;;;;;;;17.00;17.00;;;;;6.77;100.00;98549.47;6276902;20;3546090;-54
2023/04/15 00:31:38;;;;;;;;;16.33;16.33;;;;;6.89;100.00;98541.59;6280734;20;3557530;-53
2023/04/15 00:34:08;;;;;;;;;19.67;14.33;;;;;6.66;100.00;98543.97;6309264;20;3542424;-56
2023/04/15 00:36:36;;;;;;;;;15.67;15.67;;;;;6.72;100.00;98546.22;6303475;20;3552428;-54
2023/04/15 00:39:06;;;;;;;;;9.20;8.80;;;;;6.77;100.00;98543.28;6305007;20;2760746;-54
2023/04/15 00:41:38;;;;;;;;;13.00;13.00;;;;;6.89;100.00;98544.28;6306505;20;3522315;-52
2023/04/15 00:44:08;;;;;;;;;13.33;13.00;;;;;6.79;100.00;98550.22;6308440;20;2802911;-55
2023/04/15 00:46:38;;;;;;;;;16.00;12.00;;;;;6.82;100.00;98552.69;6305350;20;3558616;-52
2023/04/15 00:49:07;;;;;;;;;17.67;14.33;;;;;6.77;100.00;98554.78;6303397;20;3551312;-51
2023/04/15 00:51:37;;;;;;;;;10.25;10.25;;;;;6.86;100.00;98557.81;6337552;20;2794038;-53
2023/04/15 00:54:06;;;;;;;;;18.33;13.67;;;;;6.82;100.00;98558.03;6278381;20;3539875;-55
2023/04/15 00:56:37;;;;;;;;;15.00;12.00;;;;;6.81;100.00;98552.78;6305946;20;2789800;-54
2023/04/15 00:59:06;;;;;;;;;16.67;13.00;;;;;6.65;100.00;98555.56;6274358;20;3540279;-54
2023/04/15 01:01:38;;;;;;;;;15.14;15.14;;;;;6.79;100.00;98558.22;6347937;20;1821555;-55
2023/04/15 01:04:08;;;;;;;;;16.00;13.33;;;;;6.86;100.00;98558.66;6307164;20;2804613;-53
2023/04/15 01:06:37;;;;;;;;;18.00;18.00;;;;;6.93;100.00;98551.13;6305989;20;2824291;-56
2023/04/15 01:09:05;;;;;;;;;17.67;17.67;;;;;6.85;100.00;98546.28;6275440;20;3544064;-56
2023/04/15 01:11:35;;;;;;;;;16.00;14.00;;;;;6.92;100.00;98552.06;6306649;20;3537881;-56
2023/04/15 01:14:04;;;;;;;;;20.00;17.67;;;;;6.89;100.00;98552.28;6306886;20;3551316;-57
2023/04/15 01:16:33;;;;;;;;;18.33;18.33;;;;;6.85;100.00;98551.63;6271002;20;3563917;-55
2023/04/15 01:19:03;;;;;;;;;19.33;16.00;;;;;6.86;100.00;98547.16;6277364;20;3550230;-56
2023/04/15 01:21:32;;;;;;;;;23.00;18.33;;;;;6.91;100.00;98547.72;6278604;20;3575210;-54
2023/04/15 01:24:09;;;;;;;;;26.00;24.00;;;;;6.75;100.00;98540.69;6274159;20;2837860;-55
2023/04/15 01:26:40;;;;;;;;;39.33;31.67;;;;;6.85;100.00;98540.13;6275183;20;2874264;-54
2023/04/15 01:29:12;;;;;;;;;26.00;22.00;;;;;6.79;100.00;98536.00;6307373;20;2840990;-53
2023/04/15 01:31:50;;;;;;;;;19.00;16.00;;;;;6.63;100.00;98536.13;6275615;20;3561753;-56
2023/04/15 01:34:20;;;;;;;;;19.67;17.33;;;;;6.68;100.00;98539.38;6274727;20;3557540;-53
2023/04/15 01:36:49;;;;;;;;;26.00;22.00;;;;;6.66;100.00;98540.41;6274479;20;2846104;-55
2023/04/15 01:39:18;;;;;;;;;34.00;28.50;;;;;6.63;100.00;98551.28;6276330;20;2851337;-54
2023/04/15 01:41:48;;;;;;;;;39.67;34.67;;;;;6.76;100.00;98552.22;6277448;20;3614839;-52
2023/04/15 01:44:17;;;;;;;;;40.50;35.00;;;;;6.71;100.00;98544.50;6306858;20;2862817;-54
2023/04/15 01:46:47;;;;;;;;;25.00;22.00;;;;;6.85;100.00;98548.13;6271299;20;2848271;-56
2023/04/15 01:49:16;;;;;;;;;30.50;25.00;;;;;6.82;100.00;98555.34;6272443;20;2848242;-55
2023/04/15 01:51:44;;;;;;;;;28.00;23.50;;;;;6.83;100.00;98550.88;6277120;20;2851348;-57
2023/04/15 01:54:12;;;;;;;;;22.00;19.00;;;;;6.84;100.00;98557.06;6275775;20;2500297;-53
2023/04/15 01:56:40;;;;;;;;;23.00;22.00;;;;;6.88;100.00;98562.09;6268412;20;2500385;-56
2023/04/15 01:59:08;;;;;;;;;19.00;19.00;;;;;6.96;100.00;98569.63;6275756;20;2500395;-56
2023/04/15 02:01:37;;;;;;;;;20.00;20.00;;;;;6.96;100.00;98559.78;6270378;20;2500294;-56
2023/04/15 02:04:06;;;;;;;;;24.50;22.00;;;;;6.99;100.00;98559.59;6274906;20;2846156;-56
2023/04/15 02:06:35;;;;;;;;;24.00;22.50;;;;;6.90;100.00;98559.31;6268535;20;2845176;-57
2023/04/15 02:09:03;;;;;;;;;22.50;22.50;;;;;6.75;100.00;98567.38;6271967;20;2837789;-54
2023/04/15 02:11:31;;;;;;;;;20.00;20.00;;;;;6.84;100.00;98563.25;6271960;20;2500406;-59
2023/04/15 02:14:00;;;;;;;;;29.50;24.00;;;;;6.83;100.00;98564.22;6273683;20;2851335;-59
2023/04/15 02:16:31;;;;;;;;;31.00;28.00;;;;;6.79;100.00;98558.22;6269472;20;2861882;-59
2023/04/15 02:19:00;;;;;;;;;26.00;25.50;;;;;6.84;100.00;98557.06;6304488;20;2847196;-58
2023/04/15 02:21:30;;;;;;;;;24.00;21.50;;;;;6.87;100.00;98560.38;6280610;20;2866932;-58
2023/04/15 02:24:01;;;;;;;;;14.20;12.60;;;;;6.93;100.00;98551.13;6311017;20;2796114;-57
2023/04/15 02:26:31;;;;;;;;;28.00;25.00;;;;;6.94;100.00;98550.16;6285451;20;2837779;-59
2023/04/15 02:29:00;;;;;;;;;27.00;25.50;;;;;6.93;100.00;98545.81;6283301;20;2500275;-59
2023/04/15 02:31:32;;;;;;;;;37.00;31.67;;;;;6.90;100.00;98537.97;6285047;20;3611828;-59
2023/04/15 02:34:03;;;;;;;;;34.33;28.67;;;;;6.94;100.00;98535.00;6313887;20;2850306;-59
2023/04/15 02:36:33;;;;;;;;;30.00;28.00;;;;;6.66;100.00;98541.28;6314611;20;2844060;-59
2023/04/15 02:39:03;;;;;;;;;28.00;25.00;;;;;6.72;100.00;98540.91;6286261;20;2846095;-59
2023/04/15 02:41:32;;;;;;;;;31.50;30.00;;;;;6.78;100.00;98545.81;6284365;20;2850313;-57
2023/04/15 02:44:01;;;;;;;;;30.50;29.00;;;;;6.91;100.00;98547.72;6286906;20;2860683;-59
2023/04/15 02:46:29;;;;;;;;;24.50;23.00;;;;;6.90;100.00;98543.31;6285860;20;2848469;-59
2023/04/15 02:48:58;;;;;;;;;35.00;27.50;;;;;7.01;100.00;98548.81;6284179;20;2870064;-58
2023/04/15 02:51:31;;;;;;;;;31.50;25.50;;;;;6.82;100.00;98542.00;6283121;20;2856525;-59
2023/04/15 02:54:00;;;;;;;;;28.00;27.50;;;;;6.98;100.00;98547.22;6286649;20;2848178;-59
2023/04/15 02:56:29;;;;;;;;;28.50;27.00;;;;;6.89;100.00;98552.28;6283549;20;2840937;-59
2023/04/15 02:58:58;;;;;;;;;28.50;24.50;;;;;7.07;100.00;98545.75;6286573;20;2842067;-59
2023/04/15 03:01:27;;;;;;;;;33.00;26.00;;;;;6.99;100.00;98542.72;6283813;20;2850308;-58
2023/04/15 03:03:56;;;;;;;;;28.00;25.50;;;;;6.89;100.00;98544.28;6283516;20;2845100;-59
2023/04/15 03:06:25;;;;;;;;;31.50;30.00;;;;;6.97;100.00;98544.63;6282958;20;2847232;-59
2023/04/15 03:08:55;;;;;;;;;38.50;36.00;;;;;6.91;100.00;98551.22;6286375;20;2850370;-59
2023/04/15 03:11:28;;;;;;;;;44.33;35.00;;;;;7.02;100.00;98547.84;6284595;20;3595195;-59
2023/04/15 03:13:57;;;;;;;;;40.67;35.67;;;;;7.24;100.00;98555.28;6317397;20;3595099;-60
2023/04/15 03:16:26;;;;;;;;;40.50;34.00;;;;;7.02;100.00;98563.88;6277422;20;2861850;-59
2023/04/15 03:18:55;;;;;;;;;34.67;30.00;;;;;7.09;100.00;98562.53;6285846;20;2862848;-59
2023/04/15 03:21:25;;;;;;;;;30.00;29.00;;;;;7.02;100.00;98555.84;6316233;20;2848213;-59
2023/04/15 03:23:55;;;;;;;;;29.00;29.00;;;;;7.10;100.00;98566.88;6318726;20;3598166;-59
2023/04/15 03:26:31;;;;;;;;;37.00;32.67;;;;;6.99;100.00;98553.41;6281775;20;2859757;-59
2023/04/15 03:29:00;;;;;;;;;39.00;34.50;;;;;6.92;100.00;98558.25;6315927;20;2852436;-59
2023/04/15 03:31:29;;;;;;;;;29.00;26.00;;;;;7.09;100.00;98559.84;6286855;20;2854547;-59
2023/04/15 03:33:59;;;;;;;;;35.00;32.00;;;;;7.09;100.00;98559.00;6280476;20;2864947;-59
2023/04/15 03:36:34;;;;;;;;;29.67;28.33;;;;;7.03;100.00;98561.13;6304769;20;3588951;-59
2023/04/15 03:39:03;;;;;;;;;29.50;29.50;;;;;6.81;100.00;98552.78;6279493;20;2860781;-60
2023/04/15 03:41:32;;;;;;;;;29.33;27.67;;;;;6.91;100.00;98558.38;6277857;20;2847168;-59
2023/04/15 03:44:01;;;;;;;;;29.50;26.00;;;;;6.97;100.00;98560.63;6310150;20;2834652;-60
2023/04/15 03:46:30;;;;;;;;;28.00;25.50;;;;;6.89;100.00;98552.28;6276967;20;2838964;-60
2023/04/15 03:49:01;;;;;;;;;38.00;26.67;;;;;7.01;100.00;98552.34;6279020;20;2865983;-59
2023/04/15 03:51:30;;;;;;;;;32.33;27.33;;;;;7.19;100.00;98560.97;6308287;20;3585678;-59
2023/04/15 03:53:59;;;;;;;;;26.50;26.50;;;;;7.21;100.00;98559.06;6309295;20;2844039;-60
2023/04/15 03:56:28;;;;;;;;;27.00;23.00;;;;;7.11;100.00;98563.28;6276552;20;2834698;-59
2023/04/15 03:58:56;;;;;;;;;28.00;21.50;;;;;7.08;100.00;98566.13;6278026;20;2850294;-59
2023/04/15 04:01:25;;;;;;;;;23.00;19.50;;;;;7.11;100.00;98563.28;6278935;20;2839995;-59
2023/04/15 04:03:53;;;;;;;;;23.00;20.00;;;;;6.94;100.00;98560.84;6280208;20;2844039;-59
2023/04/15 04:06:22;;;;;;;;;23.00;22.00;;;;;6.95;100.00;98560.75;6275343;20;2840030;-59
2023/04/15 04:08:51;;;;;;;;;30.00;24.00;;;;;7.07;100.00;98567.09;6277110;20;2839960;-59
2023/04/15 04:11:19;;;;;;;;;24.00;21.50;;;;;6.99;100.00;98572.06;6274678;20;2491968;-59
2023/04/15 04:13:47;;;;;;;;;24.00;23.00;;;;;6.82;100.00;98568.69;6276327;20;2500419;-59
2023/04/15 04:16:16;;;;;;;;;23.50;20.50;;;;;7.05;100.00;98566.34;6274951;20;2828632;-59
2023/04/15 04:18:44;;;;;;;;;25.00;25.00;;;;;7.06;100.00;98562.72;6276939;20;2500310;-58
2023/04/15 04:21:13;;;;;;;;;27.50;23.00;;;;;7.09;100.00;98562.53;6277537;20;2860696;-60
2023/04/15 04:23:42;;;;;;;;;31.00;26.50;;;;;7.19;100.00;98563.63;6273978;20;2842983;-59
2023/04/15 04:26:10;;;;;;;;;28.50;24.50;;;;;7.22;100.00;98563.44;6277284;20;2848248;-59
2023/04/15 04:28:39;;;;;;;;;29.00;25.00;;;;;7.13;100.00;98556.00;6276400;20;2850731;-60
2023/04/15 04:31:08;;;;;;;;;30.50;26.50;;;;;7.12;100.00;98548.13;6275209;20;2845111;-59
2023/04/15 04:33:37;;;;;;;;;29.00;27.50;;;;;7.05;100.00;98550.31;6278819;20;2846199;-57
2023/04/15 04:36:06;;;;;;;;;29.50;28.50;;;;;7.16;100.00;98545.16;6272324;20;2845086;-57
2023/04/15 04:38:35;;;;;;;;;30.00;27.50;;;;;7.00;100.00;98549.75;6278206;20;2838845;-59
2023/04/15 04:41:05;;;;;;;;;38.67;26.67;;;;;6.97;100.00;98545.47;6279157;20;2859737;-60
2023/04/15 04:43:33;;;;;;;;;32.00;30.00;;;;;7.15;100.00;98550.59;6307133;20;2853398;-60
2023/04/15 04:46:02;;;;;;;;;49.00;40.00;;;;;7.23;100.00;98549.09;6274605;20;2860698;-59
2023/04/15 04:48:30;;;;;;;;;31.50;21.00;;;;;7.30;100.00;98559.41;6277557;20;2839850;-59
2023/04/15 04:51:00;;;;;;;;;68.67;51.33;;;;;7.39;100.00;98553.44;6272631;20;3640940;-58
2023/04/15 04:53:30;;;;;;;;;56.00;45.00;;;;;7.43;100.00;98565.63;6304836;20;2872279;-60
2023/04/15 04:55:59;;;;;;;;;60.67;45.67;;;;;7.43;100.00;98562.97;6306321;20;2876600;-59
2023/04/15 04:58:29;;;;;;;;;38.00;34.00;;;;;7.48;100.00;98563.50;6306132;20;3614879;-59
2023/04/15 05:00:59;;;;;;;;;38.67;35.33;;;;;7.43;100.00;98570.97;6304999;20;2861804;-59
2023/04/15 05:03:28;;;;;;;;;58.33;41.00;;;;;7.45;100.00;98566.38;6308807;20;3626322;-60
2023/04/15 05:05:58;;;;;;;;;73.67;55.00;;;;;7.44;100.00;98572.69;6303868;20;2879714;-59
2023/04/15 05:08:28;;;;;;;;;55.67;39.00;;;;;7.50;100.00;98574.94;6308408;20;2872377;-60
2023/04/15 05:10:56;;;;;;;;;36.00;29.67;;;;;7.43;100.00;98573.66;6309612;20;3612782;-60
2023/04/15 05:13:26;;;;;;;;;55.00;38.00;;;;;7.41;100.00;98578.22;6277600;20;2870249;-60
2023/04/15 05:15:55;;;;;;;;;46.00;38.33;;;;;7.31;100.00;98579.78;6307418;20;3569010;-60
2023/04/15 05:18:24;;;;;;;;;41.33;36.67;;;;;7.50;100.00;98588.28;6309590;20;3601413;-60
2023/04/15 05:20:53;;;;;;;;;44.00;39.00;;;;;7.32;100.00;98585.03;6272338;20;2851396;-60
2023/04/15 05:23:23;;;;;;;;;34.67;32.67;;;;;7.55;100.00;98580.81;6275218;20;2862765;-60
2023/04/15 05:25:51;;;;;;;;;44.33;35.00;;;;;7.69;100.00;98579.91;6308544;20;3608613;-60
2023/04/15 05:28:20;;;;;;;;;27.00;23.00;;;;;7.34;100.00;98587.59;6274685;20;2836948;-60
2023/04/15 05:30:50;;;;;;;;;43.67;35.33;;;;;7.69;100.00;98580.75;6276316;20;2875456;-59
2023/04/15 05:33:20;;;;;;;;;30.33;27.00;;;;;7.53;100.00;98585.44;6303983;20;2865121;-60
2023/04/15 05:35:49;;;;;;;;;42.00;35.67;;;;;7.57;100.00;98584.25;6306465;20;3599242;-60
2023/04/15 05:38:18;;;;;;;;;39.00;35.33;;;;;7.41;100.00;98583.56;6276040;20;2867510;-59
2023/04/15 05:40:48;;;;;;;;;39.00;31.33;;;;;7.37;100.00;98580.25;6307452;20;2877498;-58
2023/04/15 05:43:17;;;;;;;;;38.67;34.00;;;;;7.33;100.00;98578.72;6309431;20;3587765;-59
2023/04/15 05:45:46;;;;;;;;;40.00;35.00;;;;;7.66;100.00;98580.97;6271464;20;2868065;-60
2023/04/15 05:48:15;;;;;;;;;50.67;41.00;;;;;7.61;100.00;98583.09;6308032;20;3597157;-60
2023/04/15 05:50:45;;;;;;;;;44.33;36.00;;;;;7.87;100.00;98585.81;6268505;20;2877488;-59
2023/04/15 05:53:14;;;;;;;;;41.67;36.67;;;;;8.03;100.00;98591.84;6303410;20;2864858;-60
2023/04/15 05:55:43;;;;;;;;;43.33;36.33;;;;;8.04;100.00;98588.19;6303201;20;3574332;-60
2023/04/15 05:58:12;;;;;;;;;35.33;29.67;;;;;8.06;100.00;98588.94;6305034;20;3606475;-59
2023/04/15 06:00:41;;;;;;;;;63.00;49.00;;;;;7.61;100.00;98591.13;6271557;20;2859719;-60
2023/04/15 06:03:10;;;;;;;;;43.00;38.00;;;;;7.86;100.00;98597.47;6272691;20;2493102;-59
2023/04/15 06:05:39;;;;;;;;;47.00;37.00;;;;;7.90;100.00;98604.31;6273808;20;2499342;-59
2023/04/15 06:08:09;;;;;;;;;67.00;54.33;;;;;7.69;100.00;98595.94;6275156;20;3625311;-60
2023/04/15 06:10:38;;;;;;;;;55.33;42.00;;;;;7.86;100.00;98598.31;6303695;20;2869248;-60
2023/04/15 06:13:07;;;;;;;;;33.00;28.67;;;;;7.96;100.00;98593.22;6305702;20;3575335;-59
2023/04/15 06:15:36;;;;;;;;;33.33;27.00;;;;;7.99;100.00;98593.00;6304733;20;3585621;-60
2023/04/15 06:18:06;;;;;;;;;84.50;69.00;;;;;8.78;100.00;98591.91;6307224;20;3652507;-59
2023/04/15 06:20:35;;;;;;;;;34.00;28.33;;;;;8.59;100.00;98593.34;6307933;20;3598164;-57
2023/04/15 06:23:04;;;;;;;;;23.50;23.50;;;;;8.35;100.00;98594.09;6271145;20;2840006;-58
2023/04/15 06:25:33;;;;;;;;;34.33;29.67;;;;;8.19;100.00;98598.75;6276706;20;2860767;-58
2023/04/15 06:28:02;;;;;;;;;25.50;24.00;;;;;8.05;100.00;98607.75;6307116;20;2845047;-61
2023/04/15 06:30:31;;;;;;;;;25.00;24.00;;;;;8.12;100.00;98609.91;6276898;20;2852384;-58
2023/04/15 06:33:02;;;;;;;;;30.50;25.00;;;;;8.26;100.00;98616.09;6273285;20;2847619;-54
2023/04/15 06:35:31;;;;;;;;;28.50;26.50;;;;;8.13;100.00;98608.91;6274325;20;2844073;-60
2023/04/15 06:38:00;;;;;;;;;31.67;28.33;;;;;8.40;100.00;98618.72;6277422;20;3602395;-60
2023/04/15 06:40:29;;;;;;;;;27.00;25.00;;;;;8.43;100.00;98623.00;6308940;20;3588901;-60
2023/04/15 06:42:58;;;;;;;;;22.50;19.50;;;;;8.46;100.00;98628.97;6304533;20;2828406;-60
2023/04/15 06:45:27;;;;;;;;;36.00;30.67;;;;;8.61;100.00;98631.53;6269864;20;3607613;-59
2023/04/15 06:47:56;;;;;;;;;46.00;40.00;;;;;8.56;100.00;98630.06;6300984;20;2866986;-60
2023/04/15 06:50:26;;;;;;;;;31.50;31.50;;;;;8.59;100.00;98625.47;6271107;20;2858831;-59
2023/04/15 06:52:56;;;;;;;;;37.33;32.67;;;;;8.65;100.00;98625.88;6272125;20;3597112;-58
2023/04/15 06:55:24;;;;;;;;;34.67;32.00;;;;;8.69;100.00;98631.84;6306707;20;3606624;-58
2023/04/15 06:57:53;;;;;;;;;59.50;48.00;;;;;9.01;100.00;98626.88;6273910;20;2853392;-59
2023/04/15 07:00:23;;;;;;;;;34.00;33.00;;;;;9.24;100.00;98630.56;6274658;20;2850379;-57
2023/04/15 07:02:51;;;;;;;;;32.67;28.33;;;;;9.38;100.00;98632.25;6308015;20;3586742;-59
2023/04/15 07:05:20;;;;;;;;;38.33;33.33;;;;;11.34;95.82;98637.63;6308756;20;3579452;-58
2023/04/15 07:07:50;;;;;;;;;52.00;41.50;;;;;16.42;75.34;98659.41;6270585;20;2855621;-57
2023/04/15 07:10:19;;;;;;;;;36.33;31.00;;;;;17.05;72.64;98671.06;6283847;20;3590945;-59
2023/04/15 07:12:49;;;;;;;;;27.00;22.00;;;;;15.41;75.84;98657.88;6279118;20;2852343;-58
2023/04/15 07:15:18;;;;;;;;;20.50;19.00;;;;;17.21;69.23;98671.16;6278681;20;2839952;-59
2023/04/15 07:17:47;;;;;;;;;20.00;20.00;;;;;14.05;80.18;98659.88;6278899;20;2835700;-60
2023/04/15 07:20:16;;;;;;;;;25.00;19.50;;;;;20.89;56.86;98677.75;6278226;20;2840003;-59
2023/04/15 07:22:45;;;;;;;;;17.00;17.00;;;;;21.10;51.94;98679.78;6277356;20;2491971;-59
2023/04/15 07:25:13;;;;;;;;;18.00;17.33;;;;;21.25;49.51;98685.25;6314646;20;3562780;-59
2023/04/15 07:27:42;;;;;;;;;18.00;18.00;;;;;22.18;48.63;98682.88;6312048;20;3562795;-60
2023/04/15 07:30:11;;;;;;;;;9.00;8.00;;;;;18.93;55.92;98678.81;6280987;20;2750443;-59
2023/04/15 07:32:41;;;;;;;;;17.00;17.00;;;;;14.99;73.63;98664.59;6312070;20;3561749;-59
2023/04/15 07:35:10;;;;;;;;;19.00;19.00;;;;;13.71;83.72;98661.25;6310005;20;2839921;-59
2023/04/15 07:37:38;;;;;;;;;19.00;16.50;;;;;13.88;79.01;98663.28;6277520;20;2487817;-59
2023/04/15 07:40:08;;;;;;;;;18.00;16.00;;;;;12.65;84.96;98665.25;6279785;20;2827371;-59
2023/04/15 07:42:37;;;;;;;;;17.50;17.50;;;;;12.09;89.36;98658.34;6280809;20;2837870;-55
2023/04/15 07:45:09;;;;;;;;;15.67;14.00;;;;;12.62;86.77;98663.66;6279166;20;3528467;-58
2023/04/15 07:47:38;;;;;;;;;15.33;15.00;;;;;12.03;90.65;98661.53;6312124;20;3544036;-59
2023/04/15 07:50:09;;;;;;;;;16.00;16.00;;;;;12.16;91.37;98664.03;6280312;20;2827377;-59
2023/04/15 07:52:39;;;;;;;;;13.20;11.20;;;;;12.17;90.57;98663.94;6331746;20;2789995;-58
2023/04/15 07:55:08;;;;;;;;;3.50;3.50;;;;;13.12;84.37;98674.56;6285313;20;2746108;-59
2023/04/15 07:57:36;;;;;;;;;1.00;1.00;;;;;12.84;82.80;98677.94;6281886;20;2747164;-59
2023/04/15 08:00:06;;;;;;;;;2.00;2.00;;;;;13.30;78.54;98674.78;6281227;20;2752559;-59
2023/04/15 08:02:35;;;;;;;;;2.00;2.00;;;;;14.19;74.80;98673.94;6286764;20;2744056;-59
2023/04/15 08:05:06;;;;;;;;;1.00;1.00;;;;;14.46;75.05;98674.06;6280007;20;2756536;-59
2023/04/15 08:07:36;;;;;;;;;3.00;1.50;;;;;15.25;72.36;98680.16;6287380;20;2735824;-59
2023/04/15 08:10:05;;;;;;;;;2.50;2.50;;;;;13.57;76.54;98681.41;6283016;20;2729467;-59
2023/04/15 08:12:33;;;;;;;;;0.00;0.00;;;;;13.10;76.18;98675.66;6298841;20;1803503;-60
2023/04/15 08:15:01;;;;;;;;;2.00;2.00;;;;;13.06;77.81;98682.31;6312532;20;2735819;-59
2023/04/15 08:17:29;;;;;;;;;2.00;2.00;;;;;12.58;81.38;98677.50;6281136;20;2752461;-59
2023/04/15 08:20:00;;;;;;;;;5.00;3.00;;;;;13.12;80.90;98679.09;6280603;20;2734813;-59
2023/04/15 08:22:28;;;;;;;;;2.00;2.00;;;;;12.98;81.29;98679.44;6281447;20;2752358;-59
2023/04/15 08:24:56;;;;;;;;;4.00;3.00;;;;;12.63;79.88;98683.34;6281929;20;2737802;-59
2023/04/15 08:27:24;;;;;;;;;2.00;2.00;;;;;13.19;80.67;98677.53;6280565;20;2742030;-59
2023/04/15 08:29:52;;;;;;;;;2.00;2.00;;;;;13.55;74.37;98678.81;6282093;20;2730743;-58
2023/04/15 08:32:21;;;;;;;;;2.50;1.50;;;;;13.74;74.33;98682.56;6299323;20;1800423;-59
2023/04/15 08:34:49;;;;;;;;;2.00;2.00;;;;;13.49;74.23;98678.53;6314725;20;2744027;-58
2023/04/15 08:37:17;;;;;;;;;1.00;1.00;;;;;13.06;75.52;98687.69;6284236;20;2732593;-59
2023/04/15 08:39:45;;;;;;;;;1.00;1.00;;;;;13.43;76.32;98684.47;6282657;20;2733678;-59
2023/04/15 08:42:31;;;;;;;;;0.00;0.00;;;;;13.32;72.08;98693.50;6298122;20;1793454;-59
2023/04/15 08:45:00;;;;;;;;;3.00;1.00;;;;;13.79;71.87;98683.84;6313570;20;2729509;-57
2023/04/15 08:47:30;;;;;;;;;0.25;0.25;;;;;13.84;69.85;98689.66;6297639;20;1804578;-59
2023/04/15 08:49:59;;;;;;;;;0.00;0.00;;;;;14.01;69.66;98692.69;6314347;20;2730509;-59
2023/04/15 08:52:27;;;;;;;;;2.00;1.00;;;;;15.10;68.16;98688.72;6279086;20;2730562;-60
2023/04/15 08:54:57;;;;;;;;;2.00;1.00;;;;;15.20;67.50;98688.69;6280398;20;2735726;-60
2023/04/15 08:57:29;;;;;;;;;1.00;1.00;;;;;14.50;66.76;98690.81;6278184;20;2725409;-60
2023/04/15 08:59:58;;;;;;;;;1.00;1.00;;;;;14.37;69.03;98695.66;6273454;20;2729546;-59
2023/04/15 09:02:27;;;;;;;;;1.00;1.00;;;;;13.52;68.24;98692.59;6290522;20;1802478;-60
2023/04/15 09:04:55;;;;;;;;;1.00;1.00;;;;;13.36;71.26;98685.03;6309593;20;2727761;-60
2023/04/15 09:07:24;;;;;;;;;1.00;1.00;;;;;13.74;71.58;98691.50;6299130;20;1802461;-60
2023/04/15 09:09:53;;;;;;;;;1.00;1.00;;;;;13.77;70.92;98693.94;6323603;20;1798138;-59
2023/04/15 09:12:21;;;;;;;;;0.00;0.00;;;;;13.43;70.58;98684.47;6310283;20;2730020;-59
2023/04/15 09:14:48;;;;;;;;;2.50;2.50;;;;;13.27;71.85;98688.56;6275442;20;2749351;-59
2023/04/15 09:17:20;;;;;;;;;0.50;0.50;;;;;13.38;71.56;98693.84;6277420;20;2731584;-59
2023/04/15 09:19:51;;;;;;;;;0.75;0.75;;;;;13.50;69.97;98696.41;6297570;20;1805645;-59
2023/04/15 09:22:21;;;;;;;;;1.00;1.00;;;;;13.47;69.56;98696.69;6312200;20;2727368;-60
2023/04/15 09:24:49;;;;;;;;;0.00;0.00;;;;;13.39;67.97;98700.06;6297800;20;1802927;-59
2023/04/15 09:27:17;;;;;;;;;2.00;1.00;;;;;13.59;66.77;98698.31;6313125;20;2735836;-60
2023/04/15 09:29:50;;;;;;;;;2.00;0.00;;;;;14.14;67.30;98689.69;6284285;20;2729445;-59
2023/04/15 09:32:20;;;;;;;;;2.00;1.00;;;;;13.91;67.47;98695.38;6277440;20;2736837;-59
2023/04/15 09:34:47;;;;;;;;;0.00;0.00;;;;;15.04;64.85;98692.03;6278188;20;2731647;-59
2023/04/15 09:37:17;;;;;;;;;1.00;1.00;;;;;15.95;60.53;98696.72;6279172;20;2728409;-59
2023/04/15 09:39:58;;;;;;;;;1.00;1.00;;;;;15.49;62.47;98695.84;6282037;20;2729511;-60
2023/04/15 09:42:27;;;;;;;;;3.50;3.50;;;;;13.59;66.21;98696.44;6278463;20;2747324;-60
2023/04/15 09:44:55;;;;;;;;;3.00;2.00;;;;;13.58;67.98;98683.09;6278946;20;2743002;-59
2023/04/15 09:47:30;;;;;;;;;5.00;3.50;;;;;12.93;70.75;98685.25;6280877;20;2748324;-59
2023/04/15 09:50:00;;;;;;;;;3.50;3.50;;;;;12.75;70.67;98687.69;6280945;20;2756046;-59
2023/04/15 09:52:31;;;;;;;;;2.25;1.75;;;;;12.70;72.72;98684.56;6298629;20;1803503;-59
2023/04/15 09:55:00;;;;;;;;;2.00;2.00;;;;;12.61;73.37;98690.72;6306063;20;2752365;-59
2023/04/15 09:57:37;;;;;;;;;2.50;2.50;;;;;12.18;77.67;98697.91;6278889;20;2748193;-60
2023/04/15 10:00:10;;;;;;;;;1.50;1.50;;;;;11.61;79.50;98707.09;6301304;20;1815976;-54
2023/04/15 10:02:43;;;;;;;;;1.00;1.00;;;;;10.81;83.18;98716.16;6314416;20;2741990;-59
2023/04/15 10:05:16;;;;;;;;;1.00;1.00;;;;;10.24;91.20;98720.50;6294708;20;1807759;-59
2023/04/15 10:07:45;;;;;;;;;1.75;1.00;;;;;9.64;94.90;98724.13;6329064;20;1803506;-58
2023/04/15 10:10:14;;;;;;;;;3.00;3.00;;;;;9.47;99.11;98724.47;6307746;20;2754480;-58
2023/04/15 10:12:43;;;;;;;;;3.00;3.00;;;;;9.42;100.00;98714.94;6279708;20;2739925;-54
2023/04/15 10:15:16;;;;;;;;;32.33;24.67;;;;;9.82;100.00;98706.66;6304806;20;2863976;-57
2023/04/15 10:17:49;;;;;;;;;61.00;44.00;;;;;10.26;100.00;98705.13;6302697;20;3629623;-54
2023/04/15 10:20:20;;;;;;;;;50.67;38.33;;;;;11.24;99.75;98701.16;6301013;20;2861831;-56
2023/04/15 10:22:51;;;;;;;;;32.33;23.00;;;;;12.42;94.15;98705.75;6307129;20;3601299;-56
2023/04/15 10:25:22;;;;;;;;;15.00;11.00;;;;;13.03;91.13;98702.28;6297156;20;2790985;-55
2023/04/15 10:27:51;;;;;;;;;3.00;3.00;;;;;13.93;92.30;98704.19;6277673;20;2735738;-56
2023/04/15 10:30:20;;;;;;;;;2.00;2.00;;;;;13.91;92.15;98697.22;6275395;20;2746201;-55
2023/04/15 10:32:49;;;;;;;;;2.00;2.00;;;;;13.81;93.22;98695.34;6280018;20;2739876;-56
2023/04/15 10:35:19;;;;;;;;;2.00;2.00;;;;;13.49;90.66;98698.28;6275332;20;2746157;-55
2023/04/15 10:37:47;;;;;;;;;4.00;2.00;;;;;12.62;93.87;98695.97;6285200;20;2612923;-56
2023/04/15 10:40:37;;;;;;;;;1.00;1.00;;;;;12.03;96.24;98702.75;6292711;20;1807780;-55
2023/04/15 10:43:04;;;;;;;;;3.00;3.00;;;;;11.47;98.08;98707.38;6312525;20;2729477;-55
2023/04/15 10:45:37;;;;;;;;;2.00;2.00;;;;;11.53;96.44;98709.56;6281671;20;2735725;-53
2023/04/15 10:48:07;;;;;;;;;3.00;1.50;;;;;10.98;98.14;98721.06;6300630;20;1803649;-53
2023/04/15 10:50:38;;;;;;;;;2.00;2.00;;;;;10.06;100.00;98729.94;6317098;20;2739860;-54
2023/04/15 10:53:10;;;;;;;;;18.50;18.00;;;;;10.08;99.75;98715.44;6274705;20;2829481;-55
2023/04/15 10:55:38;;;;;;;;;12.00;12.00;;;;;10.61;97.76;98715.03;6279425;20;2500302;-59
2023/04/15 10:58:09;;;;;;;;;8.00;8.00;;;;;10.58;98.21;98704.53;6295282;20;1800349;-56
2023/04/15 11:00:38;;;;;;;;;2.00;2.00;;;;;11.06;97.01;98709.72;6313958;20;2744151;-55
2023/04/15 11:03:12;;;;;;;;;2.50;0.00;;;;;10.92;93.07;98707.25;6300442;20;1800422;-54
2023/04/15 11:05:41;;;;;;;;;1.00;1.00;;;;;11.17;95.07;98708.88;6330799;20;1803634;-56
2023/04/15 11:08:12;;;;;;;;;1.00;1.00;;;;;11.16;98.29;98710.72;6332857;20;1806776;-56
2023/04/15 11:10:40;;;;;;;;;1.00;1.00;;;;;11.07;98.11;98722.16;6314723;20;2735790;-57
2023/04/15 11:13:11;;;;;;;;;1.75;1.75;;;;;10.65;100.00;98724.56;6299733;20;1788891;-55
2023/04/15 11:15:46;;;;;;;;;1.00;1.00;;;;;10.68;100.00;98727.00;6330020;20;1809759;-52
2023/04/15 11:18:20;;;;;;;;;6.00;4.00;;;;;10.60;100.00;98733.94;6314705;20;2755706;-52